sensor_id;sensor_type;location;lat;lon;timestamp;temperature;humidity
3792;DHT22;1911;53.768;11.474;2023-04-03T00:01:32;-0.20;11.30
3792;DHT22;1911;53.768;11.474;2023-04-03T00:03:57;-0.20;5.10
3792;DHT22;1911;53.768;11.474;2023-04-03T00:06:24;-0.30;1.00
3792;DHT22;1911;53.768;11.474;2023-04-03T00:08:50;-0.20;7.10
3792;DHT22;1911;53.768;11.474;2023-04-03T00:11:16;-0.20;1.00
3792;DHT22;1911;53.768;11.474;2023-04-03T00:13:42;-0.20;1.00
3792;DHT22;1911;53.768;11.474;2023-04-03T00:16:09;-0.20;1.00
3792;DHT22;1911;53.768;11.474;2023-04-03T00:18:36;-0.10;1.00
3792;DHT22;1911;53.768;11.474;2023-04-03T00:21:02;-0.20;1.00
3792;DHT22;1911;53.768;11.474;2023-04-03T00:23:28;-0.20;1.00
3792;DHT22;1911;53.768;11.474;2023-04-03T00:25:53;-0.20;1.00
3792;DHT22;1911;53.768;11.474;2023-04-03T00:28:20;-0.20;1.00
3792;DHT22;1911;53.768;11.474;2023-04-03T00:30:46;-0.20;1.00
3792;DHT22;1911;53.768;11.474;2023-04-03T00:33:13;-0.30;1.00
3792;DHT22;1911;53.768;11.474;2023-04-03T00:35:39;-0.40;1.00
3792;DHT22;1911;53.768;11.474;2023-04-03T00:38:04;-0.40;1.00
3792;DHT22;1911;53.768;11.474;2023-04-03T00:40:34;-0.40;1.00
3792;DHT22;1911;53.768;11.474;2023-04-03T00:43:00;-0.50;1.00
3792;DHT22;1911;53.768;11.474;2023-04-03T00:45:34;-0.50;9.10
3792;DHT22;1911;53.768;11.474;2023-04-03T00:48:01;-0.50;1.00
3792;DHT22;1911;53.768;11.474;2023-04-03T00:50:29;-0.50;15.10
3792;DHT22;1911;53.768;11.474;2023-04-03T00:52:56;-0.40;19.00
3792;DHT22;1911;53.768;11.474;2023-04-03T00:55:23;-0.40;11.30
3792;DHT22;1911;53.768;11.474;2023-04-03T00:57:51;-0.40;19.90
3792;DHT22;1911;53.768;11.474;2023-04-03T01:00:20;-0.40;23.50
3792;DHT22;1911;53.768;11.474;2023-04-03T01:02:45;-0.40;22.50
3792;DHT22;1911;53.768;11.474;2023-04-03T01:05:12;-0.40;29.10
3792;DHT22;1911;53.768;11.474;2023-04-03T01:07:38;-0.40;25.20
3792;DHT22;1911;53.768;11.474;2023-04-03T01:10:08;-0.50;17.30
3792;DHT22;1911;53.768;11.474;2023-04-03T01:12:40;-0.50;19.60
3792;DHT22;1911;53.768;11.474;2023-04-03T01:15:10;-0.50;17.60
3792;DHT22;1911;53.768;11.474;2023-04-03T01:17:40;-0.50;15.20
3792;DHT22;1911;53.768;11.474;2023-04-03T01:25:46;-0.60;50.10
3792;DHT22;1911;53.768;11.474;2023-04-03T01:28:16;-0.60;62.60
3792;DHT22;1911;53.768;11.474;2023-04-03T01:31:05;-0.60;66.60
3792;DHT22;1911;53.768;11.474;2023-04-03T01:33:35;-0.60;56.60
3792;DHT22;1911;53.768;11.474;2023-04-03T01:36:01;-0.60;61.80
3792;DHT22;1911;53.768;11.474;2023-04-03T01:38:26;-0.50;72.90
3792;DHT22;1911;53.768;11.474;2023-04-03T01:40:52;-0.50;67.80
3792;DHT22;1911;53.768;11.474;2023-04-03T01:43:18;-0.40;52.10
3792;DHT22;1911;53.768;11.474;2023-04-03T01:45:43;-0.40;41.60
3792;DHT22;1911;53.768;11.474;2023-04-03T01:48:09;-0.40;28.90
3792;DHT22;1911;53.768;11.474;2023-04-03T01:50:35;-0.40;25.50
3792;DHT22;1911;53.768;11.474;2023-04-03T01:53:00;-0.40;16.90
3792;DHT22;1911;53.768;11.474;2023-04-03T01:55:26;-0.40;16.70
3792;DHT22;1911;53.768;11.474;2023-04-03T01:57:51;-0.40;12.40
3792;DHT22;1911;53.768;11.474;2023-04-03T02:00:17;-0.40;9.30
3792;DHT22;1911;53.768;11.474;2023-04-03T02:02:43;-0.50;11.30
3792;DHT22;1911;53.768;11.474;2023-04-03T02:05:08;-0.50;9.90
3792;DHT22;1911;53.768;11.474;2023-04-03T02:07:34;-0.50;1.90
3792;DHT22;1911;53.768;11.474;2023-04-03T02:10:00;-0.50;5.40
3792;DHT22;1911;53.768;11.474;2023-04-03T02:12:26;-0.60;15.60
3792;DHT22;1911;53.768;11.474;2023-04-03T02:14:51;-0.60;15.70
3792;DHT22;1911;53.768;11.474;2023-04-03T02:17:17;-0.60;9.20
3792;DHT22;1911;53.768;11.474;2023-04-03T02:19:43;-0.70;18.00
3792;DHT22;1911;53.768;11.474;2023-04-03T02:22:08;-0.70;21.50
3792;DHT22;1911;53.768;11.474;2023-04-03T02:24:34;-0.70;16.90
3792;DHT22;1911;53.768;11.474;2023-04-03T02:27:00;-0.70;21.10
3792;DHT22;1911;53.768;11.474;2023-04-03T02:29:25;-0.70;20.80
3792;DHT22;1911;53.768;11.474;2023-04-03T02:31:51;-0.70;22.90
3792;DHT22;1911;53.768;11.474;2023-04-03T02:34:17;-0.70;20.50
3792;DHT22;1911;53.768;11.474;2023-04-03T02:36:43;-0.70;19.20
3792;DHT22;1911;53.768;11.474;2023-04-03T02:39:08;-0.70;22.20
3792;DHT22;1911;53.768;11.474;2023-04-03T02:41:34;-0.70;29.80
3792;DHT22;1911;53.768;11.474;2023-04-03T02:44:04;-0.70;25.40
3792;DHT22;1911;53.768;11.474;2023-04-03T02:46:31;-0.80;21.40
3792;DHT22;1911;53.768;11.474;2023-04-03T02:48:56;-0.80;40.10
3792;DHT22;1911;53.768;11.474;2023-04-03T02:51:22;-0.70;29.10
3792;DHT22;1911;53.768;11.474;2023-04-03T02:53:49;-0.80;27.40
3792;DHT22;1911;53.768;11.474;2023-04-03T02:56:15;-0.80;27.00
3792;DHT22;1911;53.768;11.474;2023-04-03T02:58:41;-0.80;26.70
3792;DHT22;1911;53.768;11.474;2023-04-03T03:01:06;-0.80;18.20
3792;DHT22;1911;53.768;11.474;2023-04-03T03:03:32;-0.90;18.70
3792;DHT22;1911;53.768;11.474;2023-04-03T03:06:06;-0.90;22.20
3792;DHT22;1911;53.768;11.474;2023-04-03T03:08:33;-0.90;20.10
3792;DHT22;1911;53.768;11.474;2023-04-03T03:10:59;-0.90;15.60
3792;DHT22;1911;53.768;11.474;2023-04-03T03:13:24;-0.90;9.40
3792;DHT22;1911;53.768;11.474;2023-04-03T03:15:50;-0.90;12.00
3792;DHT22;1911;53.768;11.474;2023-04-03T03:18:16;-0.90;12.30
3792;DHT22;1911;53.768;11.474;2023-04-03T03:20:42;-0.90;2.30
3792;DHT22;1911;53.768;11.474;2023-04-03T03:23:07;-0.90;2.70
3792;DHT22;1911;53.768;11.474;2023-04-03T03:25:33;-0.90;7.60
3792;DHT22;1911;53.768;11.474;2023-04-03T03:27:59;-0.90;10.40
3792;DHT22;1911;53.768;11.474;2023-04-03T03:30:24;-0.90;5.70
3792;DHT22;1911;53.768;11.474;2023-04-03T03:32:50;-0.90;2.30
3792;DHT22;1911;53.768;11.474;2023-04-03T03:35:15;-0.90;4.00
3792;DHT22;1911;53.768;11.474;2023-04-03T03:37:41;-0.90;3.40
3792;DHT22;1911;53.768;11.474;2023-04-03T03:40:07;-0.90;3.50
3792;DHT22;1911;53.768;11.474;2023-04-03T03:42:33;-0.90;1.00
3792;DHT22;1911;53.768;11.474;2023-04-03T03:44:58;-0.90;1.00
3792;DHT22;1911;53.768;11.474;2023-04-03T03:47:24;-0.90;1.00
3792;DHT22;1911;53.768;11.474;2023-04-03T03:49:50;-0.90;1.00
3792;DHT22;1911;53.768;11.474;2023-04-03T03:52:16;-0.90;1.00
3792;DHT22;1911;53.768;11.474;2023-04-03T03:54:41;-0.90;1.00
3792;DHT22;1911;53.768;11.474;2023-04-03T03:57:07;-0.90;1.00
3792;DHT22;1911;53.768;11.474;2023-04-03T03:59:33;-0.90;1.00
3792;DHT22;1911;53.768;11.474;2023-04-03T04:01:58;-1.00;1.00
3792;DHT22;1911;53.768;11.474;2023-04-03T04:04:24;-1.00;1.00
3792;DHT22;1911;53.768;11.474;2023-04-03T04:06:49;-1.00;1.00
3792;DHT22;1911;53.768;11.474;2023-04-03T04:09:15;-1.00;1.00
3792;DHT22;1911;53.768;11.474;2023-04-03T04:11:41;-0.90;1.00
3792;DHT22;1911;53.768;11.474;2023-04-03T04:14:07;-0.90;1.00
3792;DHT22;1911;53.768;11.474;2023-04-03T04:16:33;-1.00;1.00
3792;DHT22;1911;53.768;11.474;2023-04-03T04:18:58;-1.00;1.00
3792;DHT22;1911;53.768;11.474;2023-04-03T04:21:24;-1.00;1.00
3792;DHT22;1911;53.768;11.474;2023-04-03T04:23:49;-1.00;1.00
3792;DHT22;1911;53.768;11.474;2023-04-03T04:26:15;-1.00;1.00
3792;DHT22;1911;53.768;11.474;2023-04-03T04:28:41;-1.00;1.00
3792;DHT22;1911;53.768;11.474;2023-04-03T04:31:06;-0.90;1.00
3792;DHT22;1911;53.768;11.474;2023-04-03T04:33:32;-0.90;1.00
3792;DHT22;1911;53.768;11.474;2023-04-03T04:35:57;-1.00;1.00
3792;DHT22;1911;53.768;11.474;2023-04-03T04:38:23;-1.00;1.00
3792;DHT22;1911;53.768;11.474;2023-04-03T04:40:49;-1.00;1.00
3792;DHT22;1911;53.768;11.474;2023-04-03T04:43:14;-1.00;1.00
3792;DHT22;1911;53.768;11.474;2023-04-03T04:45:41;-1.00;1.00
3792;DHT22;1911;53.768;11.474;2023-04-03T04:48:07;-1.00;1.00
3792;DHT22;1911;53.768;11.474;2023-04-03T04:50:32;-1.00;1.00
3792;DHT22;1911;53.768;11.474;2023-04-03T04:52:58;-1.00;1.00
3792;DHT22;1911;53.768;11.474;2023-04-03T04:55:23;-1.00;1.00
3792;DHT22;1911;53.768;11.474;2023-04-03T04:57:49;-1.00;1.00
3792;DHT22;1911;53.768;11.474;2023-04-03T05:00:15;-1.00;1.00
3792;DHT22;1911;53.768;11.474;2023-04-03T05:02:41;-1.00;1.00
3792;DHT22;1911;53.768;11.474;2023-04-03T05:05:07;-0.90;1.00
3792;DHT22;1911;53.768;11.474;2023-04-03T05:07:33;-1.00;1.00
3792;DHT22;1911;53.768;11.474;2023-04-03T05:10:01;-0.90;1.00
3792;DHT22;1911;53.768;11.474;2023-04-03T05:12:28;-0.90;1.00
3792;DHT22;1911;53.768;11.474;2023-04-03T05:14:53;-0.90;1.00
3792;DHT22;1911;53.768;11.474;2023-04-03T05:17:19;-0.90;1.00
3792;DHT22;1911;53.768;11.474;2023-04-03T05:19:45;-0.80;1.00
3792;DHT22;1911;53.768;11.474;2023-04-03T05:22:11;-0.80;1.00
3792;DHT22;1911;53.768;11.474;2023-04-03T05:24:37;-0.70;1.00
3792;DHT22;1911;53.768;11.474;2023-04-03T05:27:02;-0.50;1.00
3792;DHT22;1911;53.768;11.474;2023-04-03T05:29:28;-0.30;1.00
3792;DHT22;1911;53.768;11.474;2023-04-03T05:31:54;0.00;1.00
3792;DHT22;1911;53.768;11.474;2023-04-03T05:34:19;0.70;1.00
3792;DHT22;1911;53.768;11.474;2023-04-03T05:36:45;1.00;1.00
3792;DHT22;1911;53.768;11.474;2023-04-03T05:39:11;0.90;1.00
3792;DHT22;1911;53.768;11.474;2023-04-03T05:41:37;0.80;1.00
3792;DHT22;1911;53.768;11.474;2023-04-03T05:44:02;1.00;1.00
3792;DHT22;1911;53.768;11.474;2023-04-03T05:46:28;1.60;1.00
3792;DHT22;1911;53.768;11.474;2023-04-03T05:48:53;2.50;1.00
3792;DHT22;1911;53.768;11.474;2023-04-03T05:51:25;3.50;99.90
3792;DHT22;1911;53.768;11.474;2023-04-03T05:53:59;4.50;99.90
3792;DHT22;1911;53.768;11.474;2023-04-03T05:56:26;4.70;1.00
3792;DHT22;1911;53.768;11.474;2023-04-03T05:58:52;4.50;1.00
3792;DHT22;1911;53.768;11.474;2023-04-03T06:01:17;4.50;1.00
3792;DHT22;1911;53.768;11.474;2023-04-03T06:03:43;5.00;1.00
3792;DHT22;1911;53.768;11.474;2023-04-03T06:06:13;6.00;1.00
3792;DHT22;1911;53.768;11.474;2023-04-03T06:08:39;7.10;1.00
3792;DHT22;1911;53.768;11.474;2023-04-03T06:11:05;7.50;99.90
3792;DHT22;1911;53.768;11.474;2023-04-03T06:13:31;8.80;15.30
3792;DHT22;1911;53.768;11.474;2023-04-03T06:15:57;9.40;1.00
3792;DHT22;1911;53.768;11.474;2023-04-03T06:18:23;9.80;1.00
3792;DHT22;1911;53.768;11.474;2023-04-03T06:20:48;10.10;1.00
3792;DHT22;1911;53.768;11.474;2023-04-03T06:23:14;10.50;1.00
3792;DHT22;1911;53.768;11.474;2023-04-03T06:25:40;11.40;1.00
3792;DHT22;1911;53.768;11.474;2023-04-03T06:28:06;12.40;99.90
3792;DHT22;1911;53.768;11.474;2023-04-03T06:30:34;13.00;99.90
3792;DHT22;1911;53.768;11.474;2023-04-03T06:33:00;13.30;99.90
3792;DHT22;1911;53.768;11.474;2023-04-03T06:35:26;13.20;99.90
3792;DHT22;1911;53.768;11.474;2023-04-03T06:37:53;13.30;99.90
3792;DHT22;1911;53.768;11.474;2023-04-03T06:40:22;13.50;99.90
3792;DHT22;1911;53.768;11.474;2023-04-03T06:42:47;13.20;99.90
3792;DHT22;1911;53.768;11.474;2023-04-03T06:45:13;12.80;99.90
3792;DHT22;1911;53.768;11.474;2023-04-03T06:47:39;12.60;99.90
3792;DHT22;1911;53.768;11.474;2023-04-03T06:50:34;13.40;99.90
3792;DHT22;1911;53.768;11.474;2023-04-03T06:53:17;13.80;99.90
3792;DHT22;1911;53.768;11.474;2023-04-03T06:55:43;13.50;99.90
3792;DHT22;1911;53.768;11.474;2023-04-03T06:58:12;12.90;99.90
3792;DHT22;1911;53.768;11.474;2023-04-03T07:00:37;13.00;99.90
3792;DHT22;1911;53.768;11.474;2023-04-03T07:03:05;13.00;99.90
3792;DHT22;1911;53.768;11.474;2023-04-03T07:05:31;13.40;99.90
3792;DHT22;1911;53.768;11.474;2023-04-03T07:07:57;12.90;99.90
3792;DHT22;1911;53.768;11.474;2023-04-03T07:10:23;13.20;99.90
3792;DHT22;1911;53.768;11.474;2023-04-03T07:12:52;12.80;99.90
3792;DHT22;1911;53.768;11.474;2023-04-03T07:15:20;12.50;99.90
3792;DHT22;1911;53.768;11.474;2023-04-03T07:17:45;12.30;99.90
3792;DHT22;1911;53.768;11.474;2023-04-03T07:37:37;13.20;99.90
3792;DHT22;1911;53.768;11.474;2023-04-03T07:43:59;14.40;99.90
3792;DHT22;1911;53.768;11.474;2023-04-03T07:47:02;14.70;99.90
3792;DHT22;1911;53.768;11.474;2023-04-03T07:50:08;14.70;99.90
3792;DHT22;1911;53.768;11.474;2023-04-03T07:56:20;15.40;99.90
3792;DHT22;1911;53.768;11.474;2023-04-03T07:58:58;14.70;99.90
3792;DHT22;1911;53.768;11.474;2023-04-03T08:01:48;14.50;99.90
3792;DHT22;1911;53.768;11.474;2023-04-03T08:08:19;14.00;99.90
3792;DHT22;1911;53.768;11.474;2023-04-03T08:14:26;14.00;99.90
3792;DHT22;1911;53.768;11.474;2023-04-03T08:23:26;13.90;99.90
3792;DHT22;1911;53.768;11.474;2023-04-03T08:26:22;13.60;99.90
3792;DHT22;1911;53.768;11.474;2023-04-03T08:36:05;15.00;99.90
3792;DHT22;1911;53.768;11.474;2023-04-03T08:55:43;10.20;1.00
3792;DHT22;1911;53.768;11.474;2023-04-03T09:15:54;11.10;7.90
3792;DHT22;1911;53.768;11.474;2023-04-03T09:18:26;11.30;23.10
3792;DHT22;1911;53.768;11.474;2023-04-03T09:26:34;10.80;1.00
3792;DHT22;1911;53.768;11.474;2023-04-03T09:29:06;9.90;1.00
3792;DHT22;1911;53.768;11.474;2023-04-03T09:31:42;9.50;1.00
3792;DHT22;1911;53.768;11.474;2023-04-03T09:34:25;9.70;1.00
3792;DHT22;1911;53.768;11.474;2023-04-03T09:36:58;9.60;1.00
3792;DHT22;1911;53.768;11.474;2023-04-03T09:39:29;8.30;1.00
3792;DHT22;1911;53.768;11.474;2023-04-03T09:42:05;7.70;1.00
3792;DHT22;1911;53.768;11.474;2023-04-03T09:44:38;7.10;1.00
3792;DHT22;1911;53.768;11.474;2023-04-03T09:47:29;6.70;1.00
3792;DHT22;1911;53.768;11.474;2023-04-03T09:52:46;6.10;1.00
3792;DHT22;1911;53.768;11.474;2023-04-03T09:55:23;6.50;1.00
3792;DHT22;1911;53.768;11.474;2023-04-03T09:58:02;6.70;1.00
3792;DHT22;1911;53.768;11.474;2023-04-03T10:00:33;6.70;1.00
3792;DHT22;1911;53.768;11.474;2023-04-03T10:03:05;6.40;1.00
3792;DHT22;1911;53.768;11.474;2023-04-03T10:05:44;6.00;1.00
3792;DHT22;1911;53.768;11.474;2023-04-03T10:10:48;5.90;1.00
3792;DHT22;1911;53.768;11.474;2023-04-03T10:13:30;5.90;1.00
3792;DHT22;1911;53.768;11.474;2023-04-03T10:16:12;5.80;1.00
3792;DHT22;1911;53.768;11.474;2023-04-03T10:21:33;5.70;1.00
3792;DHT22;1911;53.768;11.474;2023-04-03T10:24:08;5.80;1.00
3792;DHT22;1911;53.768;11.474;2023-04-03T10:41:59;5.90;1.00
3792;DHT22;1911;53.768;11.474;2023-04-03T10:46:42;6.40;1.00
3792;DHT22;1911;53.768;11.474;2023-04-03T10:54:39;6.80;1.00
3792;DHT22;1911;53.768;11.474;2023-04-03T10:57:10;6.70;1.00
3792;DHT22;1911;53.768;11.474;2023-04-03T10:59:41;6.90;1.00
3792;DHT22;1911;53.768;11.474;2023-04-03T11:02:19;6.70;1.00
3792;DHT22;1911;53.768;11.474;2023-04-03T11:04:51;6.50;1.00
3792;DHT22;1911;53.768;11.474;2023-04-03T11:07:29;6.80;1.00
3792;DHT22;1911;53.768;11.474;2023-04-03T11:10:13;6.90;1.00
3792;DHT22;1911;53.768;11.474;2023-04-03T11:12:46;7.10;1.00
3792;DHT22;1911;53.768;11.474;2023-04-03T11:15:16;7.50;1.00
3792;DHT22;1911;53.768;11.474;2023-04-03T11:18:00;7.30;1.00
3792;DHT22;1911;53.768;11.474;2023-04-03T11:20:31;7.40;1.00
3792;DHT22;1911;53.768;11.474;2023-04-03T11:23:26;7.50;1.00
3792;DHT22;1911;53.768;11.474;2023-04-03T11:26:10;7.10;1.00
3792;DHT22;1911;53.768;11.474;2023-04-03T11:28:37;7.00;1.00
3792;DHT22;1911;53.768;11.474;2023-04-03T11:36:24;7.80;1.00
3792;DHT22;1911;53.768;11.474;2023-04-03T11:38:54;7.50;1.00
3792;DHT22;1911;53.768;11.474;2023-04-03T11:41:31;7.40;1.00
3792;DHT22;1911;53.768;11.474;2023-04-03T11:44:04;7.30;1.00
3792;DHT22;1911;53.768;11.474;2023-04-03T11:47:09;7.10;1.00
3792;DHT22;1911;53.768;11.474;2023-04-03T11:50:03;7.30;1.00
3792;DHT22;1911;53.768;11.474;2023-04-03T11:58:04;7.40;1.00
3792;DHT22;1911;53.768;11.474;2023-04-03T12:00:54;7.40;1.00
3792;DHT22;1911;53.768;11.474;2023-04-03T12:14:02;7.80;1.00
3792;DHT22;1911;53.768;11.474;2023-04-03T12:16:47;7.80;1.00
3792;DHT22;1911;53.768;11.474;2023-04-03T12:19:39;7.80;1.00
3792;DHT22;1911;53.768;11.474;2023-04-03T12:22:16;7.80;1.00
3792;DHT22;1911;53.768;11.474;2023-04-03T12:24:49;7.40;1.00
3792;DHT22;1911;53.768;11.474;2023-04-03T12:32:56;7.00;1.00
3792;DHT22;1911;53.768;11.474;2023-04-03T12:35:39;7.20;1.00
3792;DHT22;1911;53.768;11.474;2023-04-03T12:38:33;7.30;1.00
3792;DHT22;1911;53.768;11.474;2023-04-03T12:46:21;6.70;1.00
3792;DHT22;1911;53.768;11.474;2023-04-03T12:48:53;6.60;1.00
3792;DHT22;1911;53.768;11.474;2023-04-03T12:51:40;6.70;1.00
3792;DHT22;1911;53.768;11.474;2023-04-03T12:57:20;6.60;1.00
3792;DHT22;1911;53.768;11.474;2023-04-03T12:59:47;6.70;1.00
3792;DHT22;1911;53.768;11.474;2023-04-03T13:04:50;6.70;1.00
3792;DHT22;1911;53.768;11.474;2023-04-03T13:07:34;6.70;1.00
3792;DHT22;1911;53.768;11.474;2023-04-03T13:10:20;6.70;1.00
3792;DHT22;1911;53.768;11.474;2023-04-03T13:12:52;6.50;1.00
3792;DHT22;1911;53.768;11.474;2023-04-03T13:15:23;6.70;1.00
3792;DHT22;1911;53.768;11.474;2023-04-03T13:17:50;6.80;1.00
3792;DHT22;1911;53.768;11.474;2023-04-03T13:25:24;6.60;1.00
3792;DHT22;1911;53.768;11.474;2023-04-03T13:27:50;6.50;1.00
3792;DHT22;1911;53.768;11.474;2023-04-03T13:32:47;6.60;1.00
3792;DHT22;1911;53.768;11.474;2023-04-03T13:38:04;6.40;1.00
3792;DHT22;1911;53.768;11.474;2023-04-03T13:40:31;6.40;1.00
3792;DHT22;1911;53.768;11.474;2023-04-03T13:43:16;6.20;1.00
3792;DHT22;1911;53.768;11.474;2023-04-03T13:46:38;6.00;1.00
3792;DHT22;1911;53.768;11.474;2023-04-03T13:48:42;5.90;1.00
3792;DHT22;1911;53.768;11.474;2023-04-03T13:54:00;6.00;1.00
3792;DHT22;1911;53.768;11.474;2023-04-03T13:59:20;5.90;1.00
3792;DHT22;1911;53.768;11.474;2023-04-03T14:01:51;6.00;1.00
3792;DHT22;1911;53.768;11.474;2023-04-03T14:04:23;5.90;1.00
3792;DHT22;1911;53.768;11.474;2023-04-03T14:06:49;5.90;1.00
3792;DHT22;1911;53.768;11.474;2023-04-03T14:09:16;6.00;1.00
3792;DHT22;1911;53.768;11.474;2023-04-03T14:11:42;6.10;1.00
3792;DHT22;1911;53.768;11.474;2023-04-03T14:14:15;6.20;1.00
3792;DHT22;1911;53.768;11.474;2023-04-03T14:16:44;6.20;1.00
3792;DHT22;1911;53.768;11.474;2023-04-03T14:19:25;6.20;1.00
3792;DHT22;1911;53.768;11.474;2023-04-03T14:21:52;6.20;1.00
3792;DHT22;1911;53.768;11.474;2023-04-03T14:24:21;6.10;1.00
3792;DHT22;1911;53.768;11.474;2023-04-03T14:26:49;6.10;1.00
3792;DHT22;1911;53.768;11.474;2023-04-03T14:29:17;6.10;1.00
3792;DHT22;1911;53.768;11.474;2023-04-03T14:31:44;6.10;1.00
3792;DHT22;1911;53.768;11.474;2023-04-03T14:34:11;6.20;1.00
3792;DHT22;1911;53.768;11.474;2023-04-03T14:36:38;6.10;1.00
3792;DHT22;1911;53.768;11.474;2023-04-03T14:39:04;6.00;1.00
3792;DHT22;1911;53.768;11.474;2023-04-03T14:41:30;6.10;1.00
3792;DHT22;1911;53.768;11.474;2023-04-03T14:43:56;6.10;1.00
3792;DHT22;1911;53.768;11.474;2023-04-03T14:46:28;6.10;1.00
3792;DHT22;1911;53.768;11.474;2023-04-03T14:48:54;6.10;1.00
3792;DHT22;1911;53.768;11.474;2023-04-03T14:51:20;6.00;1.00
3792;DHT22;1911;53.768;11.474;2023-04-03T14:53:45;6.00;1.00
3792;DHT22;1911;53.768;11.474;2023-04-03T14:56:21;6.10;1.00
3792;DHT22;1911;53.768;11.474;2023-04-03T14:58:49;6.00;1.00
3792;DHT22;1911;53.768;11.474;2023-04-03T15:01:18;5.90;1.00
3792;DHT22;1911;53.768;11.474;2023-04-03T15:03:43;5.80;1.00
3792;DHT22;1911;53.768;11.474;2023-04-03T15:06:13;5.70;1.00
3792;DHT22;1911;53.768;11.474;2023-04-03T15:08:41;5.70;1.00
3792;DHT22;1911;53.768;11.474;2023-04-03T15:11:09;5.70;1.00
3792;DHT22;1911;53.768;11.474;2023-04-03T15:13:35;5.70;1.00
3792;DHT22;1911;53.768;11.474;2023-04-03T15:16:01;5.70;1.00
3792;DHT22;1911;53.768;11.474;2023-04-03T15:18:27;5.60;1.00
3792;DHT22;1911;53.768;11.474;2023-04-03T15:20:54;5.60;1.00
3792;DHT22;1911;53.768;11.474;2023-04-03T15:23:20;5.70;1.00
3792;DHT22;1911;53.768;11.474;2023-04-03T15:25:52;5.60;1.00
3792;DHT22;1911;53.768;11.474;2023-04-03T15:28:31;5.60;1.00
3792;DHT22;1911;53.768;11.474;2023-04-03T15:30:58;5.70;1.00
3792;DHT22;1911;53.768;11.474;2023-04-03T15:33:24;5.60;1.00
3792;DHT22;1911;53.768;11.474;2023-04-03T15:35:50;5.60;1.00
3792;DHT22;1911;53.768;11.474;2023-04-03T15:38:16;5.60;1.00
3792;DHT22;1911;53.768;11.474;2023-04-03T15:40:41;5.50;1.00
3792;DHT22;1911;53.768;11.474;2023-04-03T15:43:09;5.60;1.00
3792;DHT22;1911;53.768;11.474;2023-04-03T15:45:36;5.40;1.00
3792;DHT22;1911;53.768;11.474;2023-04-03T15:48:03;5.40;1.00
3792;DHT22;1911;53.768;11.474;2023-04-03T15:50:29;5.40;1.00
3792;DHT22;1911;53.768;11.474;2023-04-03T15:52:54;5.40;1.00
3792;DHT22;1911;53.768;11.474;2023-04-03T15:55:25;5.40;1.00
3792;DHT22;1911;53.768;11.474;2023-04-03T15:57:52;5.50;1.00
3792;DHT22;1911;53.768;11.474;2023-04-03T16:00:18;5.50;1.00
3792;DHT22;1911;53.768;11.474;2023-04-03T16:02:45;5.40;1.00
3792;DHT22;1911;53.768;11.474;2023-04-03T16:05:13;5.40;1.00
3792;DHT22;1911;53.768;11.474;2023-04-03T16:10:50;5.30;1.00
3792;DHT22;1911;53.768;11.474;2023-04-03T16:13:16;5.40;1.00
3792;DHT22;1911;53.768;11.474;2023-04-03T16:15:41;5.30;1.00
3792;DHT22;1911;53.768;11.474;2023-04-03T16:18:08;5.30;1.00
3792;DHT22;1911;53.768;11.474;2023-04-03T16:20:35;5.20;1.00
3792;DHT22;1911;53.768;11.474;2023-04-03T16:23:01;5.30;1.00
3792;DHT22;1911;53.768;11.474;2023-04-03T16:25:27;5.20;1.00
3792;DHT22;1911;53.768;11.474;2023-04-03T16:27:53;5.20;1.00
3792;DHT22;1911;53.768;11.474;2023-04-03T16:44:51;5.00;1.00
3792;DHT22;1911;53.768;11.474;2023-04-03T16:51:12;4.80;1.00
3792;DHT22;1911;53.768;11.474;2023-04-03T17:41:45;3.50;1.00
3792;DHT22;1911;53.768;11.474;2023-04-03T17:48:00;3.30;1.00
3792;DHT22;1911;53.768;11.474;2023-04-03T17:50:27;3.20;1.00
3792;DHT22;1911;53.768;11.474;2023-04-03T17:53:04;3.20;1.00
3792;DHT22;1911;53.768;11.474;2023-04-03T17:59:52;3.10;1.00
3792;DHT22;1911;53.768;11.474;2023-04-03T18:02:58;3.10;1.00
3792;DHT22;1911;53.768;11.474;2023-04-03T18:05:37;3.00;1.00
3792;DHT22;1911;53.768;11.474;2023-04-03T18:08:14;2.90;1.00
3792;DHT22;1911;53.768;11.474;2023-04-03T18:22:07;2.60;1.00
3792;DHT22;1911;53.768;11.474;2023-04-03T18:25:13;2.50;1.00
3792;DHT22;1911;53.768;11.474;2023-04-03T18:44:27;2.00;99.90
3792;DHT22;1911;53.768;11.474;2023-04-03T19:09:32;1.40;1.00
3792;DHT22;1911;53.768;11.474;2023-04-03T19:12:25;1.40;1.00
3792;DHT22;1911;53.768;11.474;2023-04-03T19:22:15;1.20;1.00
3792;DHT22;1911;53.768;11.474;2023-04-03T19:25:02;1.20;99.90
3792;DHT22;1911;53.768;11.474;2023-04-03T19:28:16;1.10;99.90
3792;DHT22;1911;53.768;11.474;2023-04-03T19:31:11;1.10;99.90
3792;DHT22;1911;53.768;11.474;2023-04-03T19:33:54;1.00;99.90
3792;DHT22;1911;53.768;11.474;2023-04-03T19:37:02;0.90;1.00
3792;DHT22;1911;53.768;11.474;2023-04-03T19:46:46;0.70;1.00
3792;DHT22;1911;53.768;11.474;2023-04-03T19:49:32;0.70;1.00
3792;DHT22;1911;53.768;11.474;2023-04-03T19:52:10;0.60;13.80
3792;DHT22;1911;53.768;11.474;2023-04-03T19:55:02;0.60;99.90
3792;DHT22;1911;53.768;11.474;2023-04-03T20:01:19;0.40;99.90
3792;DHT22;1911;53.768;11.474;2023-04-03T20:07:07;0.30;99.90
3792;DHT22;1911;53.768;11.474;2023-04-03T20:10:03;0.30;99.90
3792;DHT22;1911;53.768;11.474;2023-04-03T20:22:38;0.30;99.90
3792;DHT22;1911;53.768;11.474;2023-04-03T20:25:37;0.30;99.90
3792;DHT22;1911;53.768;11.474;2023-04-03T20:28:23;0.30;99.90
3792;DHT22;1911;53.768;11.474;2023-04-03T20:31:47;0.30;99.90
3792;DHT22;1911;53.768;11.474;2023-04-03T20:38:18;0.30;99.90
3792;DHT22;1911;53.768;11.474;2023-04-03T20:44:30;0.20;99.90
3792;DHT22;1911;53.768;11.474;2023-04-03T21:00:44;0.30;99.90
3792;DHT22;1911;53.768;11.474;2023-04-03T21:26:05;0.10;1.00
3792;DHT22;1911;53.768;11.474;2023-04-03T21:29:11;0.10;1.00
3792;DHT22;1911;53.768;11.474;2023-04-03T21:41:56;0.20;1.00
3792;DHT22;1911;53.768;11.474;2023-04-03T21:44:52;0.20;1.00
3792;DHT22;1911;53.768;11.474;2023-04-03T21:47:48;0.10;1.00
3792;DHT22;1911;53.768;11.474;2023-04-03T21:51:00;0.10;1.00
3792;DHT22;1911;53.768;11.474;2023-04-03T22:03:43;-0.30;1.00
3792;DHT22;1911;53.768;11.474;2023-04-03T22:10:30;-0.50;1.00
3792;DHT22;1911;53.768;11.474;2023-04-03T22:13:11;-0.50;1.00
3792;DHT22;1911;53.768;11.474;2023-04-03T22:19:51;-0.50;1.00
3792;DHT22;1911;53.768;11.474;2023-04-03T22:23:04;-0.60;1.00
3792;DHT22;1911;53.768;11.474;2023-04-03T22:39:19;-0.70;1.00
3792;DHT22;1911;53.768;11.474;2023-04-03T22:46:08;-0.80;1.00
3792;DHT22;1911;53.768;11.474;2023-04-03T23:06:33;-1.10;1.00
3792;DHT22;1911;53.768;11.474;2023-04-03T23:13:23;-1.20;1.00
3792;DHT22;1911;53.768;11.474;2023-04-03T23:16:18;-1.10;1.00
3792;DHT22;1911;53.768;11.474;2023-04-03T23:22:49;-1.20;1.00
3792;DHT22;1911;53.768;11.474;2023-04-03T23:26:03;-1.30;1.00
